Aeroporto :







RITROVATECI SU...

 
LOGIN :

Iscrizione | Disclaimer

   EN    FR    IT 

 









Sommario :    VFR   VFR Marginale   IFR   IFR Intensivo   IFR Molto Intensivo
Visibilità : 
Base nubi : 
>= 8 km
>= 3000ft
5 / 8 km
1000 / 3000 ft
1500m / 5 km
500 / 1000 ft
800 / 1500m
200 / 500 ft
< 800m
< 200 ft
Simboli :   Temporali  Nebbia  Neve Forte  Precipitazioni Forti  Vento > 20 kt






- Altitudine del aeroporto : 199 ft
- Codice IATA : YRQ


CYRQ - Trois-Rivières

ULTIMO METAR :
  • 020800Z AUTO 21009KT 9SM BKN011 BKN018 OVC090 04/03 A2958 RMK SLP021

METARs OBSOLETI :
  • 020700Z AUTO 21011KT 9SM BKN015 OVC020 04/03 A2957 RMK SLP016
  • 020655Z AUTO 21010G17KT 9SM BKN015 OVC020 04/03 A2957 RMK SLP015
  • 020623Z AUTO 22011KT 9SM -RA BKN017 BKN024 OVC033 04/03 A2955 RMK SLP011
  • 020600Z AUTO 22009G15KT 9SM BKN010 BKN022 OVC033 04/04 A2955 RMK SLP008
  • 020550Z AUTO 21013KT 9SM OVC010 04/03 A2955 RMK PRESRR SLP008
  • 020543Z AUTO 20012G17KT 9SM OVC008 04/04 A2954 RMK SLP006

TAF TAF CYRQ
Valido dal 02 a 08 ore il 02 a 20 ore UTC


020738Z 0208/0220 21012KT P6SM SCT008 OVC050
TEMPO 0208/0212 3SM -SHRA BR BKN008 OVC050
FM021200 22005KT P6SM BKN030
TEMPO 0212/0220 4SM -SHRASN BR OVC012
BECMG 0213/0215 20012G22KT RMK FCST BASED ON AUTO OBS. NXT FCST BY 021400Z
FIR CZUL / America del Nord



MetMap, La meteo Aeronautica in un colpo d'occhio ! - Copyright ORBIFLY Dicembre 2007 - Disclaimer

ORBIFLY MET'MAP TEAM :

Programmazione e sviluppo : Alexandra Zaïnal
Concezione : Baudouin d'Aumeries
Aiuto per la programmazione : Marc-Olivier Méhu
Supporto tecnico e logistico : Manuel Goepfert
Aiuto per la traduzione : Arnaldo La Scala

Contatto : metmap@orbifly.com




FONTI E CREDITI :

   NOAA